createdAt,value
2019-04-04T00:00:55.057Z,22.60
2019-04-04T00:03:24.073Z,21.70
2019-04-04T00:05:52.648Z,23.67
2019-04-04T00:08:21.194Z,24.75
2019-04-04T00:10:49.601Z,25.50
2019-04-04T00:13:18.143Z,21.57
2019-04-04T00:15:46.354Z,17.48
2019-04-04T00:18:14.712Z,17.48
2019-04-04T00:20:43.336Z,17.70
2019-04-04T00:23:11.777Z,11.40
2019-04-04T00:25:40.869Z,20.35
2019-04-04T00:28:09.403Z,16.65
2019-04-04T00:30:38.389Z,16.45
2019-04-04T00:33:07.186Z,15.60
2019-04-04T00:35:35.924Z,13.58
2019-04-04T00:38:06.793Z,15.38
2019-04-04T00:40:34.898Z,14.05
2019-04-04T00:43:03.312Z,17.17
2019-04-04T00:45:31.302Z,15.58
2019-04-04T00:48:01.114Z,16.60
2019-04-04T00:50:29.188Z,16.67
2019-04-04T00:52:57.243Z,15.93
2019-04-04T00:55:25.077Z,16.23
2019-04-04T00:57:53.416Z,12.55
2019-04-04T01:00:22.043Z,15.83
2019-04-04T01:02:51.995Z,14.45
2019-04-04T01:05:19.953Z,18.35
2019-04-04T01:07:47.843Z,19.82
2019-04-04T01:10:18.699Z,16.95
2019-04-04T01:12:46.134Z,18.70
2019-04-04T01:15:14.693Z,16.65
2019-04-04T01:17:42.727Z,21.42
2019-04-04T01:20:11.282Z,18.62
2019-04-04T01:22:39.398Z,21.10
2019-04-04T01:25:07.610Z,16.17
2019-04-04T01:27:36.974Z,19.32
2019-04-04T01:30:06.981Z,20.37
2019-04-04T01:32:35.170Z,16.42
2019-04-04T01:35:03.827Z,17.32
2019-04-04T01:37:31.744Z,17.20
2019-04-04T01:40:02.133Z,14.15
2019-04-04T01:42:29.941Z,14.13
2019-04-04T01:44:57.857Z,11.90
2019-04-04T01:47:26.063Z,10.60
2019-04-04T01:49:54.134Z,12.90
2019-04-04T01:52:22.289Z,10.08
2019-04-04T01:54:50.848Z,13.88
2019-04-04T01:57:19.166Z,9.63
2019-04-04T01:59:47.503Z,10.68
2019-04-04T02:02:17.664Z,12.07
2019-04-04T02:04:45.231Z,9.63
2019-04-04T02:07:13.206Z,9.03
2019-04-04T02:09:43.374Z,9.88
2019-04-04T02:12:10.929Z,9.90
2019-04-04T02:14:38.940Z,9.43
2019-04-04T02:17:06.929Z,10.05
2019-04-04T02:19:35.023Z,10.72
2019-04-04T02:22:03.209Z,7.15
2019-04-04T02:24:31.896Z,10.75
2019-04-04T02:27:00.372Z,11.05
2019-04-04T02:29:29.224Z,11.50
2019-04-04T02:31:59.223Z,11.18
2019-04-04T02:34:27.145Z,8.58
2019-04-04T02:36:55.320Z,9.58
2019-04-04T02:39:23.867Z,9.33
2019-04-04T02:41:51.693Z,9.60
2019-04-04T02:44:20.243Z,8.35
2019-04-04T02:46:48.284Z,8.98
2019-04-04T02:49:16.848Z,9.50
2019-04-04T02:51:44.819Z,10.23
2019-04-04T02:54:12.748Z,9.00
2019-04-04T02:56:40.710Z,9.60
2019-04-04T02:59:09.305Z,10.63
2019-04-04T03:01:37.277Z,8.83
2019-04-04T03:04:05.341Z,11.43
2019-04-04T03:06:33.366Z,13.10
2019-04-04T03:09:01.575Z,9.68
2019-04-04T03:11:30.060Z,10.08
2019-04-04T03:13:58.156Z,10.50
2019-04-04T03:16:26.213Z,11.55
2019-04-04T03:18:54.094Z,11.03
2019-04-04T03:21:23.470Z,11.00
2019-04-04T03:23:51.903Z,11.97
2019-04-04T03:26:20.561Z,11.40
2019-04-04T03:28:49.431Z,10.25
2019-04-04T03:31:17.591Z,13.58
2019-04-04T03:33:45.555Z,14.05
2019-04-04T03:36:13.754Z,10.18
2019-04-04T03:38:46.077Z,11.70
2019-04-04T03:41:12.513Z,11.35
2019-04-04T03:43:40.445Z,10.65
2019-04-04T03:46:08.499Z,10.63
2019-04-04T03:48:36.490Z,12.00
2019-04-04T03:51:05.218Z,12.80
2019-04-04T03:53:34.030Z,12.45
2019-04-04T03:56:02.495Z,11.53
2019-04-04T03:58:30.394Z,15.80
2019-04-04T04:00:58.443Z,11.38
2019-04-04T04:03:26.549Z,12.55
2019-04-04T04:05:55.042Z,11.35
2019-04-04T04:08:23.289Z,11.88
2019-04-04T04:10:51.280Z,13.22
2019-04-04T04:13:19.226Z,14.18
2019-04-04T04:15:47.969Z,14.65
2019-04-04T04:18:20.146Z,16.25
2019-04-04T04:20:45.931Z,15.28
2019-04-04T04:23:13.934Z,15.85
2019-04-04T04:25:44.618Z,19.90
2019-04-04T04:28:12.748Z,16.93
2019-04-04T04:30:41.335Z,17.62
2019-04-04T04:33:09.425Z,15.50
2019-04-04T04:35:40.906Z,17.23
2019-04-04T04:38:07.502Z,16.37
2019-04-04T04:40:36.555Z,16.60
2019-04-04T04:43:04.859Z,15.00
2019-04-04T04:45:33.385Z,16.15
2019-04-04T04:48:01.822Z,15.90
2019-04-04T04:50:29.945Z,14.00
2019-04-04T04:52:58.377Z,15.15
2019-04-04T04:55:28.080Z,19.23
2019-04-04T04:57:56.728Z,18.40
2019-04-04T05:00:27.500Z,16.55
2019-04-04T05:02:55.094Z,16.27
2019-04-04T05:05:23.153Z,18.32
2019-04-04T05:07:51.223Z,19.00
2019-04-04T05:10:19.727Z,19.42
2019-04-04T05:12:47.724Z,20.12
2019-04-04T05:15:15.906Z,20.85
2019-04-04T05:17:44.058Z,18.70
2019-04-04T05:20:12.188Z,18.77
2019-04-04T05:22:40.659Z,17.85
2019-04-04T05:25:09.130Z,16.93
2019-04-04T05:27:37.920Z,16.00
2019-04-04T05:30:08.361Z,21.62
2019-04-04T05:32:36.350Z,18.77
2019-04-04T05:35:05.360Z,17.77
2019-04-04T05:37:33.478Z,19.00
2019-04-04T05:40:02.026Z,17.32
2019-04-04T05:42:32.849Z,22.05
2019-04-04T05:45:00.173Z,17.32
2019-04-04T05:47:28.820Z,18.27
2019-04-04T05:49:56.810Z,22.07
2019-04-04T05:52:26.708Z,21.57
2019-04-04T05:54:54.590Z,19.35
2019-04-04T05:57:22.972Z,20.35
2019-04-04T05:59:51.175Z,21.50
2019-04-04T06:02:19.577Z,16.95
2019-04-04T06:04:48.869Z,20.30
2019-04-04T06:07:18.185Z,21.20
2019-04-04T06:09:47.037Z,26.42
2019-04-04T06:12:15.283Z,24.98
2019-04-04T06:14:45.985Z,26.60
2019-04-04T06:17:13.579Z,22.77
2019-04-04T06:19:44.350Z,24.57
2019-04-04T06:22:11.548Z,22.27
2019-04-04T06:24:39.806Z,22.80
2019-04-04T06:27:09.151Z,24.92
2019-04-04T06:29:37.697Z,23.38
2019-04-04T06:32:05.773Z,22.73
2019-04-04T06:34:33.761Z,22.98
2019-04-04T06:37:01.640Z,26.35
2019-04-04T06:39:29.976Z,22.98
2019-04-04T06:41:57.902Z,21.12
2019-04-04T06:44:25.901Z,26.82
2019-04-04T06:46:54.198Z,21.90
2019-04-04T06:49:23.288Z,24.67
2019-04-04T06:51:51.415Z,22.00
2019-04-04T06:54:19.381Z,21.82
2019-04-04T06:56:47.541Z,22.15
2019-04-04T06:59:17.621Z,22.37
2019-04-04T07:01:45.678Z,21.35
2019-04-04T07:04:13.561Z,24.10
2019-04-04T07:06:41.976Z,18.05
2019-04-04T07:09:13.281Z,18.75
2019-04-04T07:11:40.291Z,21.93
2019-04-04T07:14:08.179Z,19.82
2019-04-04T07:16:36.881Z,21.73
2019-04-04T07:19:07.929Z,22.25
2019-04-04T07:21:35.334Z,26.07
2019-04-04T07:24:03.619Z,27.45
2019-04-04T07:26:31.724Z,23.80
2019-04-04T07:28:59.754Z,25.82
2019-04-04T07:31:27.669Z,28.50
2019-04-04T07:33:56.087Z,27.20
2019-04-04T07:36:24.160Z,31.82
2019-04-04T07:38:52.637Z,30.65
2019-04-04T07:41:20.716Z,36.70
2019-04-04T07:43:49.293Z,31.37
2019-04-04T07:46:18.599Z,28.32
2019-04-04T07:48:46.864Z,38.05
2019-04-04T07:51:17.168Z,33.92
2019-04-04T07:53:45.183Z,32.60
2019-04-04T07:56:14.356Z,33.55
2019-04-04T07:58:43.180Z,38.23
2019-04-04T08:01:11.271Z,44.23
2019-04-04T08:03:39.490Z,36.88
2019-04-04T08:06:07.346Z,38.70
2019-04-04T08:08:35.322Z,34.60
2019-04-04T08:11:03.254Z,31.42
2019-04-04T08:13:31.519Z,31.77
2019-04-04T08:15:59.811Z,35.10
2019-04-04T08:18:27.978Z,32.42
2019-04-04T08:20:56.426Z,31.68
2019-04-04T08:23:24.502Z,32.17
2019-04-04T08:25:53.612Z,26.87
2019-04-04T08:28:21.589Z,21.05
2019-04-04T08:30:49.646Z,21.70
2019-04-04T08:33:17.729Z,17.07
2019-04-04T08:35:45.591Z,15.55
2019-04-04T08:38:13.595Z,13.83
2019-04-04T08:40:42.022Z,11.40
2019-04-04T08:43:10.226Z,14.45
2019-04-04T08:45:38.742Z,12.75
2019-04-04T08:48:06.644Z,11.38
2019-04-04T08:50:34.613Z,14.00
2019-04-04T08:53:02.890Z,12.18
2019-04-04T08:55:30.912Z,15.08
2019-04-04T08:57:59.138Z,15.68
2019-04-04T09:00:27.160Z,12.70
2019-04-04T09:02:55.003Z,13.08
2019-04-04T09:05:23.339Z,11.73
2019-04-04T09:07:51.381Z,9.15
2019-04-04T09:10:21.234Z,9.88
2019-04-04T09:12:49.328Z,7.45
2019-04-04T09:15:17.617Z,8.80
2019-04-04T09:17:45.687Z,11.10
2019-04-04T09:20:15.298Z,8.05
2019-04-04T09:22:43.115Z,8.50
2019-04-04T09:25:12.199Z,8.60
2019-04-04T09:27:40.433Z,9.78
2019-04-04T09:30:09.608Z,14.60
2019-04-04T09:32:37.671Z,10.55
2019-04-04T09:35:06.321Z,12.30
2019-04-04T09:37:34.507Z,10.72
2019-04-04T09:40:03.058Z,13.78
2019-04-04T09:42:30.981Z,10.38
2019-04-04T09:44:59.717Z,11.93
2019-04-04T09:47:27.814Z,15.10
2019-04-04T09:49:56.117Z,13.18
2019-04-04T09:52:24.282Z,14.38
2019-04-04T09:54:52.606Z,12.03
2019-04-04T09:57:21.063Z,10.88
2019-04-04T09:59:49.222Z,12.43
2019-04-04T10:02:17.356Z,13.18
2019-04-04T10:04:45.374Z,10.58
2019-04-04T10:07:13.565Z,11.38
2019-04-04T10:09:41.582Z,11.35
2019-04-04T10:12:09.641Z,12.40
2019-04-04T10:14:38.325Z,11.38
2019-04-04T10:17:06.297Z,13.38
2019-04-04T10:19:34.520Z,11.03
2019-04-04T10:22:02.631Z,9.28
2019-04-04T10:24:30.548Z,10.58
2019-04-04T10:26:59.078Z,8.05
2019-04-04T10:29:27.163Z,9.08
2019-04-04T10:31:55.133Z,9.13
2019-04-04T10:34:23.116Z,9.08
2019-04-04T10:36:51.755Z,10.13
2019-04-04T10:39:28.719Z,9.83
2019-04-04T10:41:49.895Z,9.03
2019-04-04T10:44:18.058Z,10.58
2019-04-04T10:46:46.003Z,12.55
2019-04-04T10:49:14.231Z,11.08
2019-04-04T10:51:42.178Z,11.00
2019-04-04T10:54:28.823Z,13.85
2019-04-04T10:56:56.885Z,11.78
2019-04-04T10:59:25.152Z,16.62
2019-04-04T11:01:53.569Z,16.67
2019-04-04T11:04:21.558Z,16.30
2019-04-04T11:06:49.518Z,18.57
2019-04-04T11:09:18.055Z,13.90
2019-04-04T11:11:46.181Z,14.63
2019-04-04T11:14:14.047Z,15.90
2019-04-04T11:16:41.989Z,13.22
2019-04-04T11:19:10.204Z,12.07
2019-04-04T11:21:38.242Z,8.70
2019-04-04T11:24:06.631Z,12.98
2019-04-04T11:26:35.685Z,9.93
2019-04-04T11:29:03.969Z,13.28
2019-04-04T11:31:32.421Z,10.60
2019-04-04T11:34:00.584Z,7.53
2019-04-04T11:36:28.773Z,9.48
2019-04-04T11:38:57.189Z,10.53
2019-04-04T11:41:25.301Z,9.13
2019-04-04T11:43:53.436Z,8.95
2019-04-04T11:46:21.581Z,13.08
2019-04-04T11:48:50.052Z,10.53
2019-04-04T11:51:18.117Z,11.33
2019-04-04T11:53:46.106Z,10.95
2019-04-04T11:56:14.210Z,7.53
2019-04-04T11:58:42.817Z,9.80
2019-04-04T12:01:11.841Z,10.60
2019-04-04T12:03:39.963Z,11.08
2019-04-04T12:06:08.230Z,9.65
2019-04-04T12:08:36.195Z,9.48
2019-04-04T12:11:04.777Z,9.43
2019-04-04T12:13:32.795Z,13.50
2019-04-04T12:16:01.313Z,11.15
2019-04-04T12:18:29.437Z,7.70
2019-04-04T12:20:57.624Z,8.30
2019-04-04T12:23:26.015Z,7.20
2019-04-04T12:25:54.710Z,6.30
2019-04-04T12:28:22.743Z,5.58
2019-04-04T12:30:50.642Z,5.67
2019-04-04T12:33:18.672Z,6.15
2019-04-04T12:35:46.733Z,6.72
2019-04-04T12:38:15.161Z,5.90
2019-04-04T12:40:43.128Z,6.15
2019-04-04T12:43:11.319Z,6.53
2019-04-04T12:45:39.266Z,8.13
2019-04-04T12:48:09.187Z,6.15
2019-04-04T12:50:37.166Z,4.72
2019-04-04T12:53:05.110Z,4.55
2019-04-04T12:55:33.507Z,4.53
2019-04-04T12:58:01.683Z,4.03
2019-04-04T13:00:30.223Z,4.25
2019-04-04T13:02:59.043Z,5.30
2019-04-04T13:05:27.445Z,4.40
2019-04-04T13:07:57.782Z,6.62
2019-04-04T13:10:32.851Z,6.42
2019-04-04T13:12:55.997Z,4.22
2019-04-04T13:15:24.527Z,4.85
2019-04-04T13:17:52.533Z,4.12
2019-04-04T13:20:20.735Z,5.00
2019-04-04T13:22:48.800Z,4.30
2019-04-04T13:25:17.152Z,3.77
2019-04-04T13:27:45.130Z,4.30
2019-04-04T13:30:13.832Z,4.25
2019-04-04T13:32:42.143Z,3.98
2019-04-04T13:35:10.512Z,2.92
2019-04-04T13:37:38.614Z,2.92
2019-04-04T13:40:07.556Z,3.15
2019-04-04T13:42:35.861Z,3.65
2019-04-04T13:45:04.818Z,3.42
2019-04-04T13:47:32.761Z,2.30
2019-04-04T13:50:00.746Z,2.65
2019-04-04T13:52:28.644Z,2.00
2019-04-04T13:54:57.011Z,2.10
2019-04-04T13:57:25.028Z,2.20
2019-04-04T13:59:53.273Z,2.40
2019-04-04T14:02:21.412Z,2.83
2019-04-04T14:04:49.413Z,4.15
2019-04-04T14:07:17.429Z,4.78
2019-04-04T14:09:45.441Z,3.10
2019-04-04T14:12:14.288Z,4.17
2019-04-04T14:14:42.651Z,2.85
2019-04-04T14:17:11.045Z,1.95
2019-04-04T14:19:39.713Z,1.75
2019-04-04T14:22:10.290Z,2.55
2019-04-04T14:24:38.323Z,5.58
2019-04-04T14:27:06.329Z,3.50
2019-04-04T14:29:34.552Z,1.95
2019-04-04T14:32:05.380Z,2.08
2019-04-04T14:34:33.650Z,2.05
2019-04-04T14:37:01.838Z,1.65
2019-04-04T14:39:30.086Z,1.92
2019-04-04T14:41:58.621Z,1.85
2019-04-04T14:44:28.095Z,2.27
2019-04-04T14:46:56.828Z,3.15
2019-04-04T14:49:25.239Z,2.72
2019-04-04T14:51:53.587Z,2.42
2019-04-04T14:54:22.144Z,3.60
2019-04-04T14:56:51.044Z,2.80
2019-04-04T14:59:19.965Z,3.30
2019-04-04T15:01:48.482Z,3.55
2019-04-04T15:04:16.728Z,3.30
2019-04-04T15:06:45.033Z,4.35
2019-04-04T15:09:14.016Z,5.28
2019-04-04T15:11:42.884Z,4.10
2019-04-04T15:14:11.896Z,4.62
2019-04-04T15:16:40.343Z,4.80
2019-04-04T15:19:08.757Z,4.78
2019-04-04T15:21:36.997Z,3.95
2019-04-04T15:24:05.736Z,4.25
2019-04-04T15:26:35.294Z,5.40
2019-04-04T15:29:03.269Z,4.70
2019-04-04T15:31:32.002Z,5.72
2019-04-04T15:34:00.359Z,5.03
2019-04-04T15:36:29.156Z,5.78
2019-04-04T15:38:57.944Z,4.72
2019-04-04T15:41:36.156Z,6.17
2019-04-04T15:43:57.314Z,7.50
2019-04-04T15:46:26.067Z,5.20
2019-04-04T15:48:54.962Z,5.12
2019-04-04T15:51:23.461Z,5.25
2019-04-04T15:53:51.322Z,4.17
2019-04-04T15:56:19.326Z,5.20
2019-04-04T15:58:47.481Z,4.87
2019-04-04T16:01:16.034Z,7.15
2019-04-04T16:03:45.004Z,8.80
2019-04-04T16:06:13.913Z,6.20
2019-04-04T16:08:42.166Z,6.03
2019-04-04T16:11:11.806Z,16.60
2019-04-04T16:13:40.174Z,7.35
2019-04-04T16:16:09.084Z,7.95
2019-04-04T16:18:37.740Z,6.53
2019-04-04T16:21:07.419Z,5.47
2019-04-04T16:23:35.719Z,4.20
2019-04-04T16:26:04.704Z,2.60
2019-04-04T16:28:32.624Z,2.70
2019-04-04T16:31:00.905Z,1.77
2019-04-04T16:33:28.873Z,1.80
2019-04-04T16:35:56.966Z,1.70
2019-04-04T16:38:25.408Z,2.22
2019-04-04T16:40:53.887Z,1.55
2019-04-04T16:43:23.418Z,2.25
2019-04-04T16:45:51.556Z,2.60
2019-04-04T16:48:20.053Z,2.77
2019-04-04T16:50:48.430Z,2.25
2019-04-04T16:53:16.930Z,1.57
2019-04-04T16:55:44.993Z,2.12
2019-04-04T16:58:13.565Z,1.20
2019-04-04T17:00:42.865Z,1.25
2019-04-04T17:03:11.458Z,2.87
2019-04-04T17:05:39.565Z,1.00
2019-04-04T17:08:08.170Z,1.80
2019-04-04T17:10:36.591Z,0.85
2019-04-04T17:13:05.262Z,1.75
2019-04-04T17:15:36.247Z,1.02
2019-04-04T17:18:05.371Z,1.67
2019-04-04T17:20:34.517Z,1.12
2019-04-04T17:23:04.779Z,1.30
2019-04-04T17:25:33.863Z,1.45
2019-04-04T17:28:02.597Z,1.47
2019-04-04T17:30:31.413Z,1.65
2019-04-04T17:33:00.490Z,2.00
2019-04-04T17:35:29.347Z,1.47
2019-04-04T17:37:59.506Z,1.50
2019-04-04T17:40:28.558Z,3.15
2019-04-04T17:43:00.030Z,1.90
2019-04-04T17:45:31.185Z,1.60
2019-04-04T17:48:01.218Z,1.80
2019-04-04T17:50:31.082Z,1.57
2019-04-04T17:53:00.622Z,1.75
2019-04-04T17:55:31.102Z,1.95
2019-04-04T17:58:00.530Z,1.87
2019-04-04T18:00:29.914Z,2.20
2019-04-04T18:02:59.607Z,1.98
2019-04-04T18:05:28.482Z,2.80
2019-04-04T18:07:58.966Z,2.70
2019-04-04T18:10:27.646Z,2.17
2019-04-04T18:12:56.346Z,2.15
2019-04-04T18:15:26.304Z,2.22
2019-04-04T18:18:15.625Z,2.45
2019-04-04T18:20:44.063Z,2.80
2019-04-04T18:23:15.094Z,4.33
2019-04-04T18:25:43.150Z,4.22
2019-04-04T18:28:11.399Z,2.30
2019-04-04T18:30:40.226Z,2.72
2019-04-04T18:33:08.456Z,3.27
2019-04-04T18:35:36.997Z,3.15
2019-04-04T18:38:05.837Z,4.47
2019-04-04T18:40:34.590Z,3.65
2019-04-04T18:43:03.702Z,4.53
2019-04-04T18:45:31.889Z,5.00
2019-04-04T18:48:00.943Z,4.78
2019-04-04T18:50:29.911Z,3.83
2019-04-04T18:52:58.597Z,3.87
2019-04-04T18:55:30.860Z,4.03
2019-04-04T18:57:59.364Z,5.62
2019-04-04T19:00:28.861Z,4.37
2019-04-04T19:02:57.630Z,4.65
2019-04-04T19:05:25.734Z,5.37
2019-04-04T19:07:54.238Z,6.40
2019-04-04T19:10:22.814Z,5.47
2019-04-04T19:12:51.461Z,6.87
2019-04-04T19:15:19.950Z,7.10
2019-04-04T19:17:48.470Z,7.60
2019-04-04T19:20:17.435Z,7.85
2019-04-04T19:22:46.234Z,7.42
2019-04-04T19:25:15.389Z,10.13
2019-04-04T19:27:44.188Z,9.48
2019-04-04T19:30:12.916Z,8.60
2019-04-04T19:32:41.959Z,8.68
2019-04-04T19:35:11.139Z,7.97
2019-04-04T19:37:40.621Z,8.95
2019-04-04T19:40:09.598Z,7.70
2019-04-04T19:42:38.779Z,8.50
2019-04-04T19:45:07.528Z,9.13
2019-04-04T19:47:36.331Z,9.08
2019-04-04T19:50:05.367Z,9.65
2019-04-04T19:52:33.769Z,10.15
2019-04-04T19:55:02.341Z,9.53
2019-04-04T19:57:31.504Z,8.15
2019-04-04T20:00:00.316Z,9.40
2019-04-04T20:02:29.079Z,10.13
2019-04-04T20:04:57.567Z,11.05
2019-04-04T20:07:25.989Z,9.50
2019-04-04T20:09:55.498Z,12.00
2019-04-04T20:12:24.275Z,12.20
2019-04-04T20:14:53.628Z,13.13
2019-04-04T20:17:22.472Z,14.55
2019-04-04T20:19:53.123Z,14.50
2019-04-04T20:22:22.606Z,13.80
2019-04-04T20:24:50.834Z,14.47
2019-04-04T20:27:19.707Z,14.78
2019-04-04T20:29:51.325Z,16.70
2019-04-04T20:32:20.218Z,17.52
2019-04-04T20:34:49.387Z,19.35
2019-04-04T20:37:18.346Z,16.97
2019-04-04T20:39:47.711Z,18.90
2019-04-04T20:42:16.722Z,19.27
2019-04-04T20:44:46.325Z,18.12
2019-04-04T20:47:15.852Z,20.50
2019-04-04T20:49:45.235Z,19.37
2019-04-04T20:52:17.080Z,17.77
2019-04-04T20:54:46.225Z,22.52
2019-04-04T20:57:15.839Z,21.70
2019-04-04T20:59:44.676Z,22.70
2019-04-04T21:02:13.432Z,22.75
2019-04-04T21:04:42.682Z,23.32
2019-04-04T21:07:11.456Z,26.42
2019-04-04T21:09:39.595Z,20.68
2019-04-04T21:12:11.071Z,24.40
2019-04-04T21:14:38.889Z,21.20
2019-04-04T21:17:07.685Z,23.20
2019-04-04T21:19:38.780Z,24.30
2019-04-04T21:22:07.618Z,24.50
2019-04-04T21:24:39.943Z,27.25
2019-04-04T21:27:08.506Z,23.98
2019-04-04T21:29:37.016Z,28.42
2019-04-04T21:32:05.724Z,26.12
2019-04-04T21:34:34.251Z,27.45
2019-04-04T21:37:02.950Z,25.95
2019-04-04T21:39:31.262Z,25.70
2019-04-04T21:42:00.225Z,27.30
2019-04-04T21:44:28.683Z,25.65
2019-04-04T21:46:57.234Z,27.73
2019-04-04T21:49:25.891Z,31.55
2019-04-04T21:51:54.819Z,27.13
2019-04-04T21:54:24.846Z,30.10
2019-04-04T21:56:53.868Z,26.17
2019-04-04T21:59:22.634Z,28.57
2019-04-04T22:01:51.734Z,29.52
2019-04-04T22:04:20.444Z,25.82
2019-04-04T22:06:48.655Z,28.07
2019-04-04T22:09:17.710Z,26.80
2019-04-04T22:11:45.791Z,28.20
2019-04-04T22:14:21.548Z,27.17
2019-04-04T22:16:43.976Z,31.62
2019-04-04T22:19:11.887Z,30.05
2019-04-04T22:21:40.277Z,29.77
2019-04-04T22:24:08.192Z,28.57
2019-04-04T22:26:36.712Z,31.27
2019-04-04T22:29:04.668Z,32.85
2019-04-04T22:31:32.516Z,33.05
2019-04-04T22:34:00.542Z,28.67
2019-04-04T22:36:28.470Z,32.13
2019-04-04T22:38:56.637Z,31.05
2019-04-04T22:41:24.993Z,28.90
2019-04-04T22:44:02.867Z,29.10
2019-04-04T22:46:23.217Z,30.72
2019-04-04T22:48:51.265Z,30.05
2019-04-04T22:51:19.240Z,30.48
2019-04-04T22:53:47.693Z,30.77
2019-04-04T22:56:15.614Z,33.42
2019-04-04T22:58:43.579Z,32.38
2019-04-04T23:01:12.693Z,29.65
2019-04-04T23:03:40.768Z,30.20
2019-04-04T23:06:08.974Z,26.40
2019-04-04T23:08:36.968Z,29.77
2019-04-04T23:11:04.929Z,28.45
2019-04-04T23:13:33.093Z,29.63
2019-04-04T23:16:01.133Z,26.62
2019-04-04T23:18:29.271Z,31.60
2019-04-04T23:20:57.224Z,29.10
2019-04-04T23:23:25.408Z,30.90
2019-04-04T23:25:53.720Z,31.55
2019-04-04T23:28:21.668Z,31.55
2019-04-04T23:30:49.724Z,34.60
2019-04-04T23:33:18.117Z,33.30
2019-04-04T23:35:46.351Z,32.25
2019-04-04T23:38:14.900Z,30.75
2019-04-04T23:40:42.858Z,30.75
2019-04-04T23:43:11.339Z,32.15
2019-04-04T23:45:39.981Z,31.00
2019-04-04T23:48:08.057Z,30.70
2019-04-04T23:50:36.063Z,32.98
2019-04-04T23:53:03.911Z,29.48
2019-04-04T23:55:31.850Z,31.55
2019-04-04T23:57:59.708Z,29.90
